sensor_id;sensor_type;location;lat;lon;timestamp;P1;durP1;ratioP1;P2;durP2;ratioP2
5040;SDS011;2539;52.568;13.364;2022-11-06T00:01:15;10.83;;;6.27;;
5040;SDS011;2539;52.568;13.364;2022-11-06T00:03:42;11.17;;;6.50;;
5040;SDS011;2539;52.568;13.364;2022-11-06T00:06:11;9.53;;;5.90;;
5040;SDS011;2539;52.568;13.364;2022-11-06T00:08:58;15.23;;;6.60;;
5040;SDS011;2539;52.568;13.364;2022-11-06T00:11:25;13.77;;;6.60;;
5040;SDS011;2539;52.568;13.364;2022-11-06T00:13:51;14.57;;;6.30;;
5040;SDS011;2539;52.568;13.364;2022-11-06T00:16:18;9.97;;;7.03;;
5040;SDS011;2539;52.568;13.364;2022-11-06T00:18:45;13.00;;;6.23;;
5040;SDS011;2539;52.568;13.364;2022-11-06T00:21:14;15.27;;;7.70;;
5040;SDS011;2539;52.568;13.364;2022-11-06T00:23:43;9.77;;;6.80;;
5040;SDS011;2539;52.568;13.364;2022-11-06T00:26:12;16.10;;;6.63;;
5040;SDS011;2539;52.568;13.364;2022-11-06T00:28:39;11.73;;;7.23;;
5040;SDS011;2539;52.568;13.364;2022-11-06T00:31:07;11.67;;;6.63;;
5040;SDS011;2539;52.568;13.364;2022-11-06T00:33:38;17.07;;;6.70;;
5040;SDS011;2539;52.568;13.364;2022-11-06T00:36:05;9.47;;;6.70;;
5040;SDS011;2539;52.568;13.364;2022-11-06T00:38:34;13.80;;;7.10;;
5040;SDS011;2539;52.568;13.364;2022-11-06T00:41:01;15.73;;;6.50;;
5040;SDS011;2539;52.568;13.364;2022-11-06T00:43:29;10.00;;;6.17;;
5040;SDS011;2539;52.568;13.364;2022-11-06T00:46:02;12.67;;;6.60;;
5040;SDS011;2539;52.568;13.364;2022-11-06T00:48:30;11.77;;;7.30;;
5040;SDS011;2539;52.568;13.364;2022-11-06T00:53:28;11.30;;;7.03;;
5040;SDS011;2539;52.568;13.364;2022-11-06T00:56:01;11.83;;;7.20;;
5040;SDS011;2539;52.568;13.364;2022-11-06T00:58:31;12.67;;;7.33;;
5040;SDS011;2539;52.568;13.364;2022-11-06T01:01:04;13.40;;;8.00;;
5040;SDS011;2539;52.568;13.364;2022-11-06T01:03:32;14.30;;;7.93;;
5040;SDS011;2539;52.568;13.364;2022-11-06T01:06:09;13.03;;;8.00;;
5040;SDS011;2539;52.568;13.364;2022-11-06T01:08:38;13.47;;;8.00;;
5040;SDS011;2539;52.568;13.364;2022-11-06T01:11:09;11.53;;;8.20;;
5040;SDS011;2539;52.568;13.364;2022-11-06T01:13:37;12.10;;;6.83;;
5040;SDS011;2539;52.568;13.364;2022-11-06T01:16:05;16.57;;;7.20;;
5040;SDS011;2539;52.568;13.364;2022-11-06T01:18:34;9.70;;;7.17;;
5040;SDS011;2539;52.568;13.364;2022-11-06T01:21:05;13.10;;;7.80;;
5040;SDS011;2539;52.568;13.364;2022-11-06T01:23:32;9.70;;;7.10;;
5040;SDS011;2539;52.568;13.364;2022-11-06T01:26:03;12.53;;;7.50;;
5040;SDS011;2539;52.568;13.364;2022-11-06T01:28:32;14.97;;;7.30;;
5040;SDS011;2539;52.568;13.364;2022-11-06T01:31:02;12.13;;;8.40;;
5040;SDS011;2539;52.568;13.364;2022-11-06T01:33:30;12.47;;;7.50;;
5040;SDS011;2539;52.568;13.364;2022-11-06T01:35:56;10.17;;;7.60;;
5040;SDS011;2539;52.568;13.364;2022-11-06T01:38:23;12.17;;;7.50;;
5040;SDS011;2539;52.568;13.364;2022-11-06T01:40:49;11.60;;;6.93;;
5040;SDS011;2539;52.568;13.364;2022-11-06T01:43:17;14.33;;;7.40;;
5040;SDS011;2539;52.568;13.364;2022-11-06T01:45:49;11.67;;;7.17;;
5040;SDS011;2539;52.568;13.364;2022-11-06T01:48:18;9.80;;;7.83;;
5040;SDS011;2539;52.568;13.364;2022-11-06T01:50:49;16.60;;;8.83;;
5040;SDS011;2539;52.568;13.364;2022-11-06T01:53:19;10.90;;;6.83;;
5040;SDS011;2539;52.568;13.364;2022-11-06T01:55:48;8.23;;;6.83;;
5040;SDS011;2539;52.568;13.364;2022-11-06T01:58:18;12.40;;;8.10;;
5040;SDS011;2539;52.568;13.364;2022-11-06T02:00:47;12.53;;;7.07;;
5040;SDS011;2539;52.568;13.364;2022-11-06T02:03:14;10.03;;;6.90;;
5040;SDS011;2539;52.568;13.364;2022-11-06T02:05:40;10.03;;;7.07;;
5040;SDS011;2539;52.568;13.364;2022-11-06T02:08:08;9.57;;;7.33;;
5040;SDS011;2539;52.568;13.364;2022-11-06T02:10:37;10.67;;;7.13;;
5040;SDS011;2539;52.568;13.364;2022-11-06T02:16:20;11.53;;;7.20;;
5040;SDS011;2539;52.568;13.364;2022-11-06T02:19:53;13.17;;;7.57;;
5040;SDS011;2539;52.568;13.364;2022-11-06T02:22:25;10.90;;;7.03;;
5040;SDS011;2539;52.568;13.364;2022-11-06T02:25:03;11.67;;;8.53;;
5040;SDS011;2539;52.568;13.364;2022-11-06T02:27:37;11.90;;;7.90;;
5040;SDS011;2539;52.568;13.364;2022-11-06T02:30:07;9.33;;;7.50;;
5040;SDS011;2539;52.568;13.364;2022-11-06T02:32:43;12.40;;;7.97;;
5040;SDS011;2539;52.568;13.364;2022-11-06T02:38:31;8.77;;;7.57;;
5040;SDS011;2539;52.568;13.364;2022-11-06T02:41:05;10.87;;;7.67;;
5040;SDS011;2539;52.568;13.364;2022-11-06T02:43:36;11.43;;;7.10;;
5040;SDS011;2539;52.568;13.364;2022-11-06T02:46:05;12.50;;;8.97;;
5040;SDS011;2539;52.568;13.364;2022-11-06T02:48:40;12.43;;;8.10;;
5040;SDS011;2539;52.568;13.364;2022-11-06T02:51:11;17.30;;;9.23;;
5040;SDS011;2539;52.568;13.364;2022-11-06T02:53:41;13.33;;;9.00;;
5040;SDS011;2539;52.568;13.364;2022-11-06T02:56:11;15.10;;;8.43;;
5040;SDS011;2539;52.568;13.364;2022-11-06T02:58:47;15.50;;;8.80;;
5040;SDS011;2539;52.568;13.364;2022-11-06T03:04:13;11.50;;;8.87;;
5040;SDS011;2539;52.568;13.364;2022-11-06T03:06:55;11.67;;;9.27;;
5040;SDS011;2539;52.568;13.364;2022-11-06T03:09:28;12.43;;;8.90;;
5040;SDS011;2539;52.568;13.364;2022-11-06T03:12:06;11.00;;;8.13;;
5040;SDS011;2539;52.568;13.364;2022-11-06T03:14:58;15.17;;;8.10;;
5040;SDS011;2539;52.568;13.364;2022-11-06T03:17:49;17.07;;;9.00;;
5040;SDS011;2539;52.568;13.364;2022-11-06T03:20:44;15.70;;;8.87;;
5040;SDS011;2539;52.568;13.364;2022-11-06T03:23:17;16.97;;;9.77;;
5040;SDS011;2539;52.568;13.364;2022-11-06T03:25:59;22.07;;;9.60;;
5040;SDS011;2539;52.568;13.364;2022-11-06T03:28:38;12.53;;;8.47;;
5040;SDS011;2539;52.568;13.364;2022-11-06T03:31:17;11.97;;;8.37;;
5040;SDS011;2539;52.568;13.364;2022-11-06T03:33:50;12.60;;;8.70;;
5040;SDS011;2539;52.568;13.364;2022-11-06T03:36:22;10.40;;;8.80;;
5040;SDS011;2539;52.568;13.364;2022-11-06T03:38:57;15.10;;;8.60;;
5040;SDS011;2539;52.568;13.364;2022-11-06T03:41:44;12.70;;;9.17;;
5040;SDS011;2539;52.568;13.364;2022-11-06T03:44:18;16.10;;;8.80;;
5040;SDS011;2539;52.568;13.364;2022-11-06T03:46:49;11.53;;;8.63;;
5040;SDS011;2539;52.568;13.364;2022-11-06T03:49:21;12.70;;;10.13;;
5040;SDS011;2539;52.568;13.364;2022-11-06T03:52:01;17.80;;;10.00;;
5040;SDS011;2539;52.568;13.364;2022-11-06T03:54:33;12.67;;;9.70;;
5040;SDS011;2539;52.568;13.364;2022-11-06T03:57:06;16.03;;;8.63;;
5040;SDS011;2539;52.568;13.364;2022-11-06T03:59:41;19.03;;;10.13;;
5040;SDS011;2539;52.568;13.364;2022-11-06T04:02:11;11.30;;;8.37;;
5040;SDS011;2539;52.568;13.364;2022-11-06T04:04:42;12.40;;;8.80;;
5040;SDS011;2539;52.568;13.364;2022-11-06T04:07:19;17.07;;;9.60;;
5040;SDS011;2539;52.568;13.364;2022-11-06T04:09:52;14.33;;;9.10;;
5040;SDS011;2539;52.568;13.364;2022-11-06T04:12:40;15.13;;;10.27;;
5040;SDS011;2539;52.568;13.364;2022-11-06T04:15:26;17.50;;;9.03;;
5040;SDS011;2539;52.568;13.364;2022-11-06T04:17:58;15.23;;;9.80;;
5040;SDS011;2539;52.568;13.364;2022-11-06T04:20:24;19.30;;;9.40;;
5040;SDS011;2539;52.568;13.364;2022-11-06T04:23:24;13.10;;;9.93;;
5040;SDS011;2539;52.568;13.364;2022-11-06T04:26:11;13.60;;;9.97;;
5040;SDS011;2539;52.568;13.364;2022-11-06T04:32:02;12.27;;;9.43;;
5040;SDS011;2539;52.568;13.364;2022-11-06T04:34:49;14.10;;;9.97;;
5040;SDS011;2539;52.568;13.364;2022-11-06T04:37:43;13.40;;;9.27;;
5040;SDS011;2539;52.568;13.364;2022-11-06T04:43:13;10.53;;;9.40;;
5040;SDS011;2539;52.568;13.364;2022-11-06T04:45:48;13.83;;;9.70;;
5040;SDS011;2539;52.568;13.364;2022-11-06T04:48:18;16.93;;;10.30;;
5040;SDS011;2539;52.568;13.364;2022-11-06T04:50:47;15.47;;;10.73;;
5040;SDS011;2539;52.568;13.364;2022-11-06T04:53:19;14.27;;;9.63;;
5040;SDS011;2539;52.568;13.364;2022-11-06T04:55:50;17.40;;;9.97;;
5040;SDS011;2539;52.568;13.364;2022-11-06T04:58:17;14.40;;;9.10;;
5040;SDS011;2539;52.568;13.364;2022-11-06T05:00:45;13.27;;;9.10;;
5040;SDS011;2539;52.568;13.364;2022-11-06T05:03:13;13.53;;;8.90;;
5040;SDS011;2539;52.568;13.364;2022-11-06T05:05:40;12.13;;;9.13;;
5040;SDS011;2539;52.568;13.364;2022-11-06T05:08:11;20.67;;;9.80;;
5040;SDS011;2539;52.568;13.364;2022-11-06T05:10:39;12.87;;;9.37;;
5040;SDS011;2539;52.568;13.364;2022-11-06T05:13:06;11.60;;;9.10;;
5040;SDS011;2539;52.568;13.364;2022-11-06T05:15:33;13.83;;;9.00;;
5040;SDS011;2539;52.568;13.364;2022-11-06T05:17:59;12.77;;;9.50;;
5040;SDS011;2539;52.568;13.364;2022-11-06T05:20:25;13.57;;;9.67;;
5040;SDS011;2539;52.568;13.364;2022-11-06T05:22:51;11.23;;;8.90;;
5040;SDS011;2539;52.568;13.364;2022-11-06T05:27:55;13.03;;;9.77;;
5040;SDS011;2539;52.568;13.364;2022-11-06T05:30:22;15.57;;;9.70;;
5040;SDS011;2539;52.568;13.364;2022-11-06T05:32:50;15.13;;;9.90;;
5040;SDS011;2539;52.568;13.364;2022-11-06T05:35:17;11.03;;;9.20;;
5040;SDS011;2539;52.568;13.364;2022-11-06T05:37:44;11.93;;;9.60;;
5040;SDS011;2539;52.568;13.364;2022-11-06T05:40:10;15.70;;;10.70;;
5040;SDS011;2539;52.568;13.364;2022-11-06T05:42:36;14.67;;;10.80;;
5040;SDS011;2539;52.568;13.364;2022-11-06T05:45:03;15.00;;;11.80;;
5040;SDS011;2539;52.568;13.364;2022-11-06T05:47:29;18.07;;;12.53;;
5040;SDS011;2539;52.568;13.364;2022-11-06T05:49:55;20.60;;;13.20;;
5040;SDS011;2539;52.568;13.364;2022-11-06T05:52:22;18.23;;;12.40;;
5040;SDS011;2539;52.568;13.364;2022-11-06T05:54:48;18.57;;;12.13;;
5040;SDS011;2539;52.568;13.364;2022-11-06T05:57:14;14.63;;;10.47;;
5040;SDS011;2539;52.568;13.364;2022-11-06T05:59:41;17.53;;;13.50;;
5040;SDS011;2539;52.568;13.364;2022-11-06T06:02:07;15.90;;;11.43;;
5040;SDS011;2539;52.568;13.364;2022-11-06T06:04:34;14.43;;;10.67;;
5040;SDS011;2539;52.568;13.364;2022-11-06T06:07:00;12.03;;;10.20;;
5040;SDS011;2539;52.568;13.364;2022-11-06T06:09:26;14.80;;;11.40;;
5040;SDS011;2539;52.568;13.364;2022-11-06T06:11:53;13.30;;;10.07;;
5040;SDS011;2539;52.568;13.364;2022-11-06T06:14:19;14.27;;;10.07;;
5040;SDS011;2539;52.568;13.364;2022-11-06T06:16:46;14.53;;;10.23;;
5040;SDS011;2539;52.568;13.364;2022-11-06T06:19:12;13.60;;;9.70;;
5040;SDS011;2539;52.568;13.364;2022-11-06T06:21:39;11.23;;;9.37;;
5040;SDS011;2539;52.568;13.364;2022-11-06T06:24:05;12.90;;;8.77;;
5040;SDS011;2539;52.568;13.364;2022-11-06T06:26:32;10.90;;;8.47;;
5040;SDS011;2539;52.568;13.364;2022-11-06T06:28:58;11.20;;;8.50;;
5040;SDS011;2539;52.568;13.364;2022-11-06T06:31:26;10.37;;;8.30;;
5040;SDS011;2539;52.568;13.364;2022-11-06T06:33:51;11.40;;;8.43;;
5040;SDS011;2539;52.568;13.364;2022-11-06T06:36:17;14.00;;;9.97;;
5040;SDS011;2539;52.568;13.364;2022-11-06T06:38:43;14.80;;;10.10;;
5040;SDS011;2539;52.568;13.364;2022-11-06T06:41:09;15.37;;;8.90;;
5040;SDS011;2539;52.568;13.364;2022-11-06T06:43:35;11.47;;;9.00;;
5040;SDS011;2539;52.568;13.364;2022-11-06T06:46:03;14.07;;;9.70;;
5040;SDS011;2539;52.568;13.364;2022-11-06T06:48:31;10.10;;;8.50;;
5040;SDS011;2539;52.568;13.364;2022-11-06T06:50:58;11.63;;;9.10;;
5040;SDS011;2539;52.568;13.364;2022-11-06T06:53:25;9.93;;;8.63;;
5040;SDS011;2539;52.568;13.364;2022-11-06T06:55:51;15.23;;;9.90;;
5040;SDS011;2539;52.568;13.364;2022-11-06T06:58:18;12.43;;;9.93;;
5040;SDS011;2539;52.568;13.364;2022-11-06T07:00:45;12.27;;;9.30;;
5040;SDS011;2539;52.568;13.364;2022-11-06T07:03:11;14.67;;;9.87;;
5040;SDS011;2539;52.568;13.364;2022-11-06T07:05:38;17.60;;;9.90;;
5040;SDS011;2539;52.568;13.364;2022-11-06T07:08:05;12.00;;;9.90;;
5040;SDS011;2539;52.568;13.364;2022-11-06T07:10:31;17.60;;;10.60;;
5040;SDS011;2539;52.568;13.364;2022-11-06T07:13:01;11.20;;;9.23;;
5040;SDS011;2539;52.568;13.364;2022-11-06T07:15:29;20.03;;;11.03;;
5040;SDS011;2539;52.568;13.364;2022-11-06T07:18:05;13.13;;;9.53;;
5040;SDS011;2539;52.568;13.364;2022-11-06T07:20:32;15.67;;;10.10;;
5040;SDS011;2539;52.568;13.364;2022-11-06T07:23:03;12.67;;;9.67;;
5040;SDS011;2539;52.568;13.364;2022-11-06T07:25:31;11.20;;;9.30;;
5040;SDS011;2539;52.568;13.364;2022-11-06T07:28:01;16.53;;;10.07;;
5040;SDS011;2539;52.568;13.364;2022-11-06T07:30:29;10.83;;;9.43;;
5040;SDS011;2539;52.568;13.364;2022-11-06T07:32:56;12.73;;;9.40;;
5040;SDS011;2539;52.568;13.364;2022-11-06T07:35:29;15.93;;;9.50;;
5040;SDS011;2539;52.568;13.364;2022-11-06T07:37:55;13.10;;;10.00;;
5040;SDS011;2539;52.568;13.364;2022-11-06T07:40:21;13.03;;;9.60;;
5040;SDS011;2539;52.568;13.364;2022-11-06T07:42:48;11.37;;;10.00;;
5040;SDS011;2539;52.568;13.364;2022-11-06T07:45:14;12.70;;;9.77;;
5040;SDS011;2539;52.568;13.364;2022-11-06T07:47:40;11.60;;;9.93;;
5040;SDS011;2539;52.568;13.364;2022-11-06T07:50:07;11.93;;;8.90;;
5040;SDS011;2539;52.568;13.364;2022-11-06T07:52:33;17.67;;;9.23;;
5040;SDS011;2539;52.568;13.364;2022-11-06T07:54:59;12.47;;;10.07;;
5040;SDS011;2539;52.568;13.364;2022-11-06T07:57:26;11.53;;;9.20;;
5040;SDS011;2539;52.568;13.364;2022-11-06T07:59:52;12.33;;;8.87;;
5040;SDS011;2539;52.568;13.364;2022-11-06T08:02:18;16.07;;;9.77;;
5040;SDS011;2539;52.568;13.364;2022-11-06T08:04:45;10.57;;;8.73;;
5040;SDS011;2539;52.568;13.364;2022-11-06T08:07:11;16.30;;;10.23;;
5040;SDS011;2539;52.568;13.364;2022-11-06T08:09:38;10.60;;;9.50;;
5040;SDS011;2539;52.568;13.364;2022-11-06T08:12:04;16.80;;;9.87;;
5040;SDS011;2539;52.568;13.364;2022-11-06T08:14:30;12.57;;;10.27;;
5040;SDS011;2539;52.568;13.364;2022-11-06T08:16:57;11.23;;;9.90;;
5040;SDS011;2539;52.568;13.364;2022-11-06T08:19:23;13.27;;;10.20;;
5040;SDS011;2539;52.568;13.364;2022-11-06T08:21:50;14.70;;;10.77;;
5040;SDS011;2539;52.568;13.364;2022-11-06T08:24:16;13.60;;;11.23;;
5040;SDS011;2539;52.568;13.364;2022-11-06T08:26:42;14.67;;;10.70;;
5040;SDS011;2539;52.568;13.364;2022-11-06T08:29:09;15.20;;;9.30;;
5040;SDS011;2539;52.568;13.364;2022-11-06T08:31:35;13.63;;;10.23;;
5040;SDS011;2539;52.568;13.364;2022-11-06T08:34:01;13.13;;;10.17;;
5040;SDS011;2539;52.568;13.364;2022-11-06T08:36:28;11.60;;;10.40;;
5040;SDS011;2539;52.568;13.364;2022-11-06T08:38:54;14.33;;;9.47;;
5040;SDS011;2539;52.568;13.364;2022-11-06T08:41:20;17.43;;;9.93;;
5040;SDS011;2539;52.568;13.364;2022-11-06T08:43:50;11.60;;;10.40;;
5040;SDS011;2539;52.568;13.364;2022-11-06T08:46:16;14.47;;;9.47;;
5040;SDS011;2539;52.568;13.364;2022-11-06T08:48:42;10.40;;;8.30;;
5040;SDS011;2539;52.568;13.364;2022-11-06T08:51:09;10.43;;;8.90;;
5040;SDS011;2539;52.568;13.364;2022-11-06T08:53:35;10.23;;;8.33;;
5040;SDS011;2539;52.568;13.364;2022-11-06T08:56:02;12.70;;;8.60;;
5040;SDS011;2539;52.568;13.364;2022-11-06T08:58:29;10.90;;;8.60;;
5040;SDS011;2539;52.568;13.364;2022-11-06T09:00:55;13.93;;;9.20;;
5040;SDS011;2539;52.568;13.364;2022-11-06T09:03:22;16.37;;;10.20;;
5040;SDS011;2539;52.568;13.364;2022-11-06T09:05:48;12.73;;;9.80;;
5040;SDS011;2539;52.568;13.364;2022-11-06T09:08:14;14.97;;;9.57;;
5040;SDS011;2539;52.568;13.364;2022-11-06T09:10:41;11.77;;;10.57;;
5040;SDS011;2539;52.568;13.364;2022-11-06T09:13:08;17.73;;;10.87;;
5040;SDS011;2539;52.568;13.364;2022-11-06T09:15:35;18.13;;;10.20;;
5040;SDS011;2539;52.568;13.364;2022-11-06T09:18:02;14.63;;;9.70;;
5040;SDS011;2539;52.568;13.364;2022-11-06T09:20:29;15.53;;;9.67;;
5040;SDS011;2539;52.568;13.364;2022-11-06T09:22:59;12.73;;;10.10;;
5040;SDS011;2539;52.568;13.364;2022-11-06T09:25:27;16.37;;;9.90;;
5040;SDS011;2539;52.568;13.364;2022-11-06T09:27:54;12.40;;;8.93;;
5040;SDS011;2539;52.568;13.364;2022-11-06T09:30:20;12.20;;;9.23;;
5040;SDS011;2539;52.568;13.364;2022-11-06T09:32:48;11.03;;;8.43;;
5040;SDS011;2539;52.568;13.364;2022-11-06T09:35:16;8.60;;;7.70;;
5040;SDS011;2539;52.568;13.364;2022-11-06T09:37:43;9.83;;;8.70;;
5040;SDS011;2539;52.568;13.364;2022-11-06T09:40:16;14.83;;;8.10;;
5040;SDS011;2539;52.568;13.364;2022-11-06T09:43:01;12.13;;;9.17;;
5040;SDS011;2539;52.568;13.364;2022-11-06T09:45:44;8.63;;;7.33;;
5040;SDS011;2539;52.568;13.364;2022-11-06T09:48:29;9.90;;;8.47;;
5040;SDS011;2539;52.568;13.364;2022-11-06T09:51:18;11.53;;;8.60;;
5040;SDS011;2539;52.568;13.364;2022-11-06T09:53:53;9.27;;;7.70;;
5040;SDS011;2539;52.568;13.364;2022-11-06T09:56:29;9.90;;;7.70;;
5040;SDS011;2539;52.568;13.364;2022-11-06T09:59:02;12.37;;;7.77;;
5040;SDS011;2539;52.568;13.364;2022-11-06T10:01:39;9.57;;;8.37;;
5040;SDS011;2539;52.568;13.364;2022-11-06T10:04:21;10.23;;;8.10;;
5040;SDS011;2539;52.568;13.364;2022-11-06T10:07:00;9.50;;;8.10;;
5040;SDS011;2539;52.568;13.364;2022-11-06T10:09:26;9.93;;;7.90;;
5040;SDS011;2539;52.568;13.364;2022-11-06T10:11:55;9.23;;;7.97;;
5040;SDS011;2539;52.568;13.364;2022-11-06T10:14:34;15.27;;;8.37;;
5040;SDS011;2539;52.568;13.364;2022-11-06T10:20:25;10.77;;;8.80;;
5040;SDS011;2539;52.568;13.364;2022-11-06T10:25:54;10.47;;;7.87;;
5040;SDS011;2539;52.568;13.364;2022-11-06T10:34:30;7.20;;;6.07;;
5040;SDS011;2539;52.568;13.364;2022-11-06T10:37:21;8.53;;;7.33;;
5040;SDS011;2539;52.568;13.364;2022-11-06T10:39:53;13.20;;;7.33;;
5040;SDS011;2539;52.568;13.364;2022-11-06T10:42:22;7.97;;;6.60;;
5040;SDS011;2539;52.568;13.364;2022-11-06T10:44:57;7.00;;;6.30;;
5040;SDS011;2539;52.568;13.364;2022-11-06T10:47:35;8.97;;;6.70;;
5040;SDS011;2539;52.568;13.364;2022-11-06T10:50:05;7.73;;;6.13;;
5040;SDS011;2539;52.568;13.364;2022-11-06T10:52:46;9.63;;;6.40;;
5040;SDS011;2539;52.568;13.364;2022-11-06T10:55:37;7.30;;;6.57;;
5040;SDS011;2539;52.568;13.364;2022-11-06T10:58:32;8.10;;;6.33;;
5040;SDS011;2539;52.568;13.364;2022-11-06T11:01:00;11.23;;;6.00;;
5040;SDS011;2539;52.568;13.364;2022-11-06T11:03:29;12.60;;;6.63;;
5040;SDS011;2539;52.568;13.364;2022-11-06T11:06:01;7.80;;;6.33;;
5040;SDS011;2539;52.568;13.364;2022-11-06T11:11:14;9.00;;;6.77;;
5040;SDS011;2539;52.568;13.364;2022-11-06T11:13:45;8.67;;;6.20;;
5040;SDS011;2539;52.568;13.364;2022-11-06T11:16:17;6.90;;;6.20;;
5040;SDS011;2539;52.568;13.364;2022-11-06T11:18:48;6.90;;;5.70;;
5040;SDS011;2539;52.568;13.364;2022-11-06T11:21:20;7.40;;;5.77;;
5040;SDS011;2539;52.568;13.364;2022-11-06T11:26:38;7.73;;;6.03;;
5040;SDS011;2539;52.568;13.364;2022-11-06T11:31:58;6.10;;;5.50;;
5040;SDS011;2539;52.568;13.364;2022-11-06T11:34:31;6.40;;;5.80;;
5040;SDS011;2539;52.568;13.364;2022-11-06T11:37:01;12.97;;;6.70;;
5040;SDS011;2539;52.568;13.364;2022-11-06T11:39:29;8.03;;;5.83;;
5040;SDS011;2539;52.568;13.364;2022-11-06T11:47:35;8.13;;;7.20;;
5040;SDS011;2539;52.568;13.364;2022-11-06T11:50:16;7.57;;;6.67;;
5040;SDS011;2539;52.568;13.364;2022-11-06T11:52:50;8.07;;;6.30;;
5040;SDS011;2539;52.568;13.364;2022-11-06T11:55:20;9.03;;;6.80;;
5040;SDS011;2539;52.568;13.364;2022-11-06T11:57:51;8.73;;;6.50;;
5040;SDS011;2539;52.568;13.364;2022-11-06T12:00:20;12.63;;;8.37;;
5040;SDS011;2539;52.568;13.364;2022-11-06T12:03:02;9.27;;;6.07;;
5040;SDS011;2539;52.568;13.364;2022-11-06T12:05:32;5.87;;;4.83;;
5040;SDS011;2539;52.568;13.364;2022-11-06T12:08:01;8.77;;;6.00;;
5040;SDS011;2539;52.568;13.364;2022-11-06T12:10:37;6.03;;;5.43;;
5040;SDS011;2539;52.568;13.364;2022-11-06T12:13:06;7.00;;;5.50;;
5040;SDS011;2539;52.568;13.364;2022-11-06T12:15:37;7.40;;;5.20;;
5040;SDS011;2539;52.568;13.364;2022-11-06T12:18:21;6.27;;;4.93;;
5040;SDS011;2539;52.568;13.364;2022-11-06T12:21:10;6.03;;;5.20;;
5040;SDS011;2539;52.568;13.364;2022-11-06T12:26:23;9.07;;;5.97;;
5040;SDS011;2539;52.568;13.364;2022-11-06T12:28:57;7.00;;;5.57;;
5040;SDS011;2539;52.568;13.364;2022-11-06T12:34:44;5.90;;;4.07;;
5040;SDS011;2539;52.568;13.364;2022-11-06T12:37:21;6.73;;;5.17;;
5040;SDS011;2539;52.568;13.364;2022-11-06T12:42:51;6.50;;;4.27;;
5040;SDS011;2539;52.568;13.364;2022-11-06T12:45:51;5.87;;;4.20;;
5040;SDS011;2539;52.568;13.364;2022-11-06T12:48:34;4.90;;;4.00;;
5040;SDS011;2539;52.568;13.364;2022-11-06T12:51:08;6.37;;;4.63;;
5040;SDS011;2539;52.568;13.364;2022-11-06T12:53:50;3.97;;;3.57;;
5040;SDS011;2539;52.568;13.364;2022-11-06T12:56:26;5.53;;;3.87;;
5040;SDS011;2539;52.568;13.364;2022-11-06T13:01:59;6.50;;;4.90;;
5040;SDS011;2539;52.568;13.364;2022-11-06T13:07:46;5.87;;;4.47;;
5040;SDS011;2539;52.568;13.364;2022-11-06T13:10:32;4.77;;;4.27;;
5040;SDS011;2539;52.568;13.364;2022-11-06T13:19:17;6.23;;;4.80;;
5040;SDS011;2539;52.568;13.364;2022-11-06T13:22:06;11.30;;;5.10;;
5040;SDS011;2539;52.568;13.364;2022-11-06T13:27:58;6.80;;;4.37;;
5040;SDS011;2539;52.568;13.364;2022-11-06T13:30:36;7.17;;;4.30;;
5040;SDS011;2539;52.568;13.364;2022-11-06T13:35:36;5.63;;;3.93;;
5040;SDS011;2539;52.568;13.364;2022-11-06T13:38:06;5.07;;;3.60;;
5040;SDS011;2539;52.568;13.364;2022-11-06T13:40:38;7.80;;;3.50;;
5040;SDS011;2539;52.568;13.364;2022-11-06T13:43:11;6.90;;;4.00;;
5040;SDS011;2539;52.568;13.364;2022-11-06T13:48:53;7.37;;;3.90;;
5040;SDS011;2539;52.568;13.364;2022-11-06T13:51:41;6.17;;;3.40;;
5040;SDS011;2539;52.568;13.364;2022-11-06T14:00:36;8.93;;;3.90;;
5040;SDS011;2539;52.568;13.364;2022-11-06T14:03:36;5.67;;;4.10;;
5040;SDS011;2539;52.568;13.364;2022-11-06T14:06:19;6.80;;;3.80;;
5040;SDS011;2539;52.568;13.364;2022-11-06T14:08:54;6.80;;;4.40;;
5040;SDS011;2539;52.568;13.364;2022-11-06T14:11:25;7.73;;;4.47;;
5040;SDS011;2539;52.568;13.364;2022-11-06T14:13:57;6.20;;;4.30;;
5040;SDS011;2539;52.568;13.364;2022-11-06T14:16:28;5.93;;;4.30;;
5040;SDS011;2539;52.568;13.364;2022-11-06T14:18:56;7.90;;;5.17;;
5040;SDS011;2539;52.568;13.364;2022-11-06T14:26:42;7.53;;;4.43;;
5040;SDS011;2539;52.568;13.364;2022-11-06T14:34:36;5.33;;;4.20;;
5040;SDS011;2539;52.568;13.364;2022-11-06T14:42:31;7.13;;;4.40;;
5040;SDS011;2539;52.568;13.364;2022-11-06T14:45:06;5.70;;;4.63;;
5040;SDS011;2539;52.568;13.364;2022-11-06T14:47:41;6.43;;;4.77;;
5040;SDS011;2539;52.568;13.364;2022-11-06T14:50:27;8.93;;;5.67;;
5040;SDS011;2539;52.568;13.364;2022-11-06T14:53:19;7.40;;;4.57;;
5040;SDS011;2539;52.568;13.364;2022-11-06T14:58:33;7.50;;;4.37;;
5040;SDS011;2539;52.568;13.364;2022-11-06T15:03:41;6.87;;;3.83;;
5040;SDS011;2539;52.568;13.364;2022-11-06T15:13:54;7.20;;;5.00;;
5040;SDS011;2539;52.568;13.364;2022-11-06T15:16:21;13.93;;;4.77;;
5040;SDS011;2539;52.568;13.364;2022-11-06T15:18:51;8.90;;;4.20;;
5040;SDS011;2539;52.568;13.364;2022-11-06T15:21:23;7.13;;;4.20;;
5040;SDS011;2539;52.568;13.364;2022-11-06T15:23:56;6.13;;;4.60;;
5040;SDS011;2539;52.568;13.364;2022-11-06T15:26:49;8.63;;;5.10;;
5040;SDS011;2539;52.568;13.364;2022-11-06T15:31:54;5.20;;;3.70;;
5040;SDS011;2539;52.568;13.364;2022-11-06T15:34:35;4.87;;;4.13;;
5040;SDS011;2539;52.568;13.364;2022-11-06T15:37:19;8.03;;;5.50;;
5040;SDS011;2539;52.568;13.364;2022-11-06T15:39:49;6.60;;;5.03;;
5040;SDS011;2539;52.568;13.364;2022-11-06T15:42:18;8.70;;;6.10;;
5040;SDS011;2539;52.568;13.364;2022-11-06T15:44:47;10.50;;;5.70;;
5040;SDS011;2539;52.568;13.364;2022-11-06T15:47:24;6.47;;;4.30;;
5040;SDS011;2539;52.568;13.364;2022-11-06T15:53:08;7.03;;;4.50;;
5040;SDS011;2539;52.568;13.364;2022-11-06T15:55:53;7.40;;;5.23;;
5040;SDS011;2539;52.568;13.364;2022-11-06T15:58:27;7.00;;;5.03;;
5040;SDS011;2539;52.568;13.364;2022-11-06T16:00:56;5.40;;;4.70;;
5040;SDS011;2539;52.568;13.364;2022-11-06T16:03:24;10.60;;;5.27;;
5040;SDS011;2539;52.568;13.364;2022-11-06T16:05:53;7.50;;;4.83;;
5040;SDS011;2539;52.568;13.364;2022-11-06T16:08:22;5.33;;;4.10;;
5040;SDS011;2539;52.568;13.364;2022-11-06T16:10:51;6.67;;;4.33;;
5040;SDS011;2539;52.568;13.364;2022-11-06T16:13:19;6.40;;;4.93;;
5040;SDS011;2539;52.568;13.364;2022-11-06T16:16:00;5.03;;;4.30;;
5040;SDS011;2539;52.568;13.364;2022-11-06T16:18:43;5.60;;;4.60;;
5040;SDS011;2539;52.568;13.364;2022-11-06T16:21:15;7.00;;;4.63;;
5040;SDS011;2539;52.568;13.364;2022-11-06T16:23:47;7.40;;;4.30;;
5040;SDS011;2539;52.568;13.364;2022-11-06T16:26:37;8.13;;;5.20;;
5040;SDS011;2539;52.568;13.364;2022-11-06T16:29:48;7.00;;;4.60;;
5040;SDS011;2539;52.568;13.364;2022-11-06T16:31:59;5.27;;;4.77;;
5040;SDS011;2539;52.568;13.364;2022-11-06T16:34:38;6.00;;;4.30;;
5040;SDS011;2539;52.568;13.364;2022-11-06T16:37:31;7.83;;;4.93;;
5040;SDS011;2539;52.568;13.364;2022-11-06T16:40:00;10.30;;;5.17;;
5040;SDS011;2539;52.568;13.364;2022-11-06T16:42:30;6.70;;;5.20;;
5040;SDS011;2539;52.568;13.364;2022-11-06T16:50:48;9.73;;;6.60;;
5040;SDS011;2539;52.568;13.364;2022-11-06T16:53:20;15.17;;;6.30;;
5040;SDS011;2539;52.568;13.364;2022-11-06T16:56:07;10.30;;;6.13;;
5040;SDS011;2539;52.568;13.364;2022-11-06T16:58:41;9.47;;;5.63;;
5040;SDS011;2539;52.568;13.364;2022-11-06T17:01:21;9.10;;;6.77;;
5040;SDS011;2539;52.568;13.364;2022-11-06T17:03:51;11.90;;;6.40;;
5040;SDS011;2539;52.568;13.364;2022-11-06T17:08:59;7.53;;;6.10;;
5040;SDS011;2539;52.568;13.364;2022-11-06T17:11:30;12.03;;;7.27;;
5040;SDS011;2539;52.568;13.364;2022-11-06T17:13:56;8.63;;;6.57;;
5040;SDS011;2539;52.568;13.364;2022-11-06T17:16:24;8.73;;;6.63;;
5040;SDS011;2539;52.568;13.364;2022-11-06T17:18:52;8.67;;;6.97;;
5040;SDS011;2539;52.568;13.364;2022-11-06T17:21:20;12.43;;;6.47;;
5040;SDS011;2539;52.568;13.364;2022-11-06T17:23:48;7.83;;;6.20;;
5040;SDS011;2539;52.568;13.364;2022-11-06T17:26:18;6.93;;;5.90;;